createdAt,value
2024-04-05T00:00:41.135Z,65.61
2024-04-05T00:03:29.568Z,65.51
2024-04-05T00:05:58.989Z,65.42
2024-04-05T00:08:27.672Z,65.40
2024-04-05T00:10:56.183Z,65.44
2024-04-05T00:13:24.984Z,65.38
2024-04-05T00:15:53.819Z,65.40
2024-04-05T00:18:22.456Z,65.39
2024-04-05T00:20:50.918Z,65.42
2024-04-05T00:23:19.415Z,65.53
2024-04-05T00:25:47.921Z,65.56
2024-04-05T00:28:16.423Z,65.60
2024-04-05T00:30:45.085Z,65.69
2024-04-05T00:33:13.578Z,65.78
2024-04-05T00:35:58.181Z,65.83
2024-04-05T00:38:27.395Z,66.04
2024-04-05T00:40:56.366Z,66.08
2024-04-05T00:43:25.088Z,66.08
2024-04-05T00:45:53.809Z,66.18
2024-04-05T00:48:24.138Z,66.11
2024-04-05T00:50:54.661Z,66.06
2024-04-05T00:53:32.259Z,65.96
2024-04-05T00:56:03.335Z,66.22
2024-04-05T00:58:31.978Z,66.19
2024-04-05T01:01:00.488Z,66.19
2024-04-05T01:03:28.950Z,66.12
2024-04-05T01:05:57.627Z,66.05
2024-04-05T01:08:26.143Z,66.03
2024-04-05T01:10:54.611Z,66.00
2024-04-05T01:13:23.170Z,65.97
2024-04-05T01:15:52.173Z,66.00
2024-04-05T01:18:20.663Z,66.01
2024-04-05T01:20:52.186Z,65.98
2024-04-05T01:23:23.699Z,66.11
2024-04-05T01:25:54.116Z,66.06
2024-04-05T01:28:22.626Z,66.10
2024-04-05T01:30:51.120Z,66.12
2024-04-05T01:33:20.774Z,66.15
2024-04-05T01:35:49.275Z,66.12
2024-04-05T01:38:17.771Z,66.12
2024-04-05T01:40:46.249Z,66.07
2024-04-05T01:43:14.736Z,66.10
2024-04-05T01:45:43.574Z,66.14
2024-04-05T01:48:12.245Z,66.18
2024-04-05T01:50:40.702Z,66.24
2024-04-05T01:53:09.255Z,66.19
2024-04-05T01:55:37.730Z,66.26
2024-04-05T01:58:06.190Z,66.20
2024-04-05T02:00:34.643Z,66.16
2024-04-05T02:03:03.142Z,66.19
2024-04-05T02:05:31.668Z,66.31
2024-04-05T02:08:00.153Z,66.44
2024-04-05T02:10:30.095Z,66.50
2024-04-05T02:12:58.557Z,66.60
2024-04-05T02:15:27.014Z,66.76
2024-04-05T02:17:55.458Z,66.87
2024-04-05T02:20:24.001Z,66.98
2024-04-05T02:22:52.464Z,66.93
2024-04-05T02:25:20.955Z,66.88
2024-04-05T02:27:49.587Z,66.92
2024-04-05T02:30:18.046Z,66.91
2024-04-05T02:32:46.598Z,66.95
2024-04-05T02:35:15.138Z,66.85
2024-04-05T02:37:44.208Z,66.81
2024-04-05T02:40:12.697Z,66.85
2024-04-05T02:42:41.184Z,66.92
2024-04-05T02:45:09.890Z,66.90
2024-04-05T02:47:38.409Z,66.98
2024-04-05T02:50:07.716Z,67.07
2024-04-05T02:52:36.255Z,67.00
2024-04-05T02:55:06.164Z,66.95
2024-04-05T02:57:34.710Z,67.05
2024-04-05T03:00:04.171Z,67.04
2024-04-05T03:02:32.672Z,67.00
2024-04-05T03:05:01.174Z,67.08
2024-04-05T03:07:29.641Z,67.04
2024-04-05T03:09:58.103Z,66.98
2024-04-05T03:12:27.165Z,67.13
2024-04-05T03:14:55.619Z,67.12
2024-04-05T03:17:24.219Z,67.15
2024-04-05T03:19:52.704Z,67.25
2024-04-05T03:22:21.163Z,67.25
2024-04-05T03:24:49.697Z,67.14
2024-04-05T03:27:18.168Z,67.09
2024-04-05T03:29:46.765Z,67.12
2024-04-05T03:32:15.587Z,67.18
2024-04-05T03:34:48.135Z,67.16
2024-04-05T03:37:16.624Z,67.18
2024-04-05T03:39:45.292Z,67.16
2024-04-05T03:42:13.780Z,67.19
2024-04-05T03:44:42.298Z,67.22
2024-04-05T03:47:11.348Z,67.19
2024-04-05T03:49:39.946Z,67.25
2024-04-05T03:52:08.781Z,67.26
2024-04-05T03:54:37.595Z,67.25
2024-04-05T03:57:06.321Z,67.22
2024-04-05T03:59:34.935Z,67.26
2024-04-05T04:02:03.422Z,67.15
2024-04-05T04:04:31.910Z,67.22
2024-04-05T04:07:00.379Z,67.29
2024-04-05T04:09:28.965Z,67.31
2024-04-05T04:11:57.441Z,67.07
2024-04-05T04:14:26.088Z,67.17
2024-04-05T04:16:54.559Z,67.22
2024-04-05T04:19:23.087Z,67.24
2024-04-05T04:21:52.367Z,67.15
2024-04-05T04:24:21.439Z,67.21
2024-04-05T04:26:49.994Z,67.13
2024-04-05T04:29:18.540Z,67.03
2024-04-05T04:31:47.561Z,67.02
2024-04-05T04:34:16.150Z,67.11
2024-04-05T04:36:44.937Z,67.01
2024-04-05T04:39:13.468Z,66.93
2024-04-05T04:41:41.917Z,66.95
2024-04-05T04:44:10.779Z,66.90
2024-04-05T04:46:39.323Z,66.90
2024-04-05T04:49:07.788Z,66.85
2024-04-05T04:51:36.247Z,66.85
2024-04-05T04:54:04.914Z,66.80
2024-04-05T04:56:33.428Z,66.61
2024-04-05T04:59:01.921Z,66.38
2024-04-05T05:01:30.433Z,65.97
2024-04-05T05:03:58.951Z,65.96
2024-04-05T05:06:27.432Z,65.92
2024-04-05T05:08:55.939Z,65.50
2024-04-05T05:11:24.405Z,65.52
2024-04-05T05:13:53.106Z,65.48
2024-04-05T05:16:21.599Z,65.25
2024-04-05T05:18:50.129Z,65.16
2024-04-05T05:21:18.615Z,64.88
2024-04-05T05:23:47.091Z,64.69
2024-04-05T05:26:16.374Z,64.58
2024-04-05T05:28:44.993Z,64.53
2024-04-05T05:31:13.514Z,64.33
2024-04-05T05:33:41.980Z,64.15
2024-04-05T05:36:10.527Z,63.96
2024-04-05T05:38:39.617Z,63.61
2024-04-05T05:41:08.155Z,63.50
2024-04-05T05:43:36.690Z,63.33
2024-04-05T05:46:06.227Z,63.06
2024-04-05T05:48:34.792Z,62.84
2024-04-05T05:51:03.337Z,62.76
2024-04-05T05:53:31.800Z,62.58
2024-04-05T05:56:02.478Z,62.35
2024-04-05T05:58:31.507Z,62.18
2024-04-05T06:01:06.231Z,62.15
2024-04-05T06:03:35.036Z,61.65
2024-04-05T06:06:03.615Z,61.56
2024-04-05T06:08:32.110Z,61.04
2024-04-05T06:11:00.768Z,60.86
2024-04-05T06:13:30.409Z,59.83
2024-04-05T06:16:00.508Z,58.88
2024-04-05T06:18:32.176Z,57.75
2024-04-05T06:21:00.846Z,56.99
2024-04-05T06:23:29.382Z,56.64
2024-04-05T06:26:02.104Z,56.60
2024-04-05T06:28:33.882Z,56.74
2024-04-05T06:31:06.165Z,56.49
2024-04-05T06:33:34.682Z,56.55
2024-04-05T06:36:04.613Z,56.75
2024-04-05T06:38:33.126Z,56.68
2024-04-05T06:41:02.672Z,56.51
2024-04-05T06:43:32.195Z,56.18
2024-04-05T06:46:04.921Z,55.86
2024-04-05T06:48:33.707Z,55.64
2024-04-05T06:51:02.240Z,55.21
2024-04-05T06:53:30.818Z,54.87
2024-04-05T06:55:59.293Z,54.53
2024-04-05T06:58:27.768Z,53.82
2024-04-05T07:00:56.295Z,53.68
2024-04-05T07:03:25.038Z,53.40
2024-04-05T07:06:03.906Z,52.81
2024-04-05T07:08:32.902Z,52.37
2024-04-05T07:11:01.524Z,52.22
2024-04-05T07:13:30.824Z,51.76
2024-04-05T07:15:59.774Z,51.60
2024-04-05T07:18:28.311Z,51.99
2024-04-05T07:20:56.787Z,51.77
2024-04-05T07:23:25.285Z,52.01
2024-04-05T07:25:54.188Z,51.89
2024-04-05T07:28:23.147Z,52.11
2024-04-05T07:30:54.481Z,51.81
2024-04-05T07:33:25.022Z,51.73
2024-04-05T07:35:56.348Z,51.51
2024-04-05T07:38:26.435Z,51.15
2024-04-05T07:41:07.693Z,51.02
2024-04-05T07:43:36.182Z,50.76
2024-04-05T07:46:05.626Z,50.44
2024-04-05T07:48:34.192Z,50.26
2024-04-05T07:51:03.550Z,50.01
2024-04-05T07:53:32.124Z,49.80
2024-04-05T07:56:04.148Z,49.24
2024-04-05T07:58:32.697Z,49.35
2024-04-05T08:01:01.684Z,49.23
2024-04-05T08:03:30.205Z,49.20
2024-04-05T08:06:00.737Z,48.36
2024-04-05T08:08:29.437Z,47.47
2024-04-05T08:11:05.051Z,46.81
2024-04-05T08:13:33.627Z,46.20
2024-04-05T08:16:03.320Z,45.78
2024-04-05T08:18:31.878Z,44.41
2024-04-05T08:21:04.001Z,43.62
2024-04-05T08:23:32.642Z,43.27
2024-04-05T08:26:02.635Z,42.68
2024-04-05T08:28:31.282Z,41.06
2024-04-05T08:30:59.790Z,39.57
2024-04-05T08:33:29.315Z,38.41
2024-04-05T08:35:57.794Z,37.22
2024-04-05T08:38:26.420Z,36.59
2024-04-05T08:40:55.826Z,35.46
2024-04-05T08:43:28.967Z,35.14
2024-04-05T08:45:58.210Z,34.88
2024-04-05T08:48:30.228Z,35.06
2024-04-05T08:51:00.226Z,35.09
2024-04-05T08:53:29.001Z,33.83
2024-04-05T08:56:01.461Z,31.50
2024-04-05T08:58:31.680Z,30.16
2024-04-05T09:01:01.811Z,29.40
2024-04-05T09:03:30.281Z,29.25
2024-04-05T09:05:58.787Z,29.18
2024-04-05T09:08:27.822Z,28.96
2024-04-05T09:10:56.818Z,28.48
2024-04-05T09:13:25.593Z,27.05
2024-04-05T09:15:54.888Z,25.44
2024-04-05T09:18:29.651Z,24.90
2024-04-05T09:20:59.177Z,23.93
2024-04-05T09:23:27.648Z,24.07
2024-04-05T09:26:03.920Z,24.71
2024-04-05T09:28:32.381Z,25.25
2024-04-05T09:31:00.982Z,26.12
2024-04-05T09:33:29.495Z,27.12
2024-04-05T09:36:02.718Z,27.63
2024-04-05T09:38:35.926Z,28.37
2024-04-05T09:41:05.757Z,28.43
2024-04-05T09:43:52.359Z,26.90
2024-04-05T09:46:27.696Z,26.84
2024-04-05T09:48:57.763Z,27.66
2024-04-05T09:51:28.280Z,27.99
2024-04-05T09:53:59.669Z,27.40
2024-04-05T09:56:31.674Z,25.48
2024-04-05T09:59:01.124Z,23.84
2024-04-05T10:01:30.537Z,22.58
2024-04-05T10:04:00.526Z,22.99
2024-04-05T10:06:40.270Z,23.05
2024-04-05T10:09:25.221Z,24.11
2024-04-05T10:11:54.409Z,24.22
2024-04-05T10:14:27.568Z,24.80
2024-04-05T10:17:08.189Z,25.44
2024-04-05T10:19:41.532Z,26.13
2024-04-05T10:22:11.467Z,26.79
2024-04-05T10:24:40.533Z,27.45
2024-04-05T10:27:10.302Z,27.89
2024-04-05T10:29:41.423Z,28.18
2024-04-05T10:32:10.467Z,28.53
2024-04-05T10:34:39.857Z,28.10
2024-04-05T10:37:14.640Z,27.86
2024-04-05T10:39:43.121Z,27.98
2024-04-05T10:42:13.035Z,28.49
2024-04-05T10:44:41.402Z,29.22
2024-04-05T10:47:10.233Z,29.55
2024-04-05T10:49:38.762Z,29.82
2024-04-05T10:52:09.320Z,30.48
2024-04-05T10:54:37.946Z,30.72
2024-04-05T10:57:06.952Z,31.02
2024-04-05T10:59:35.533Z,31.40
2024-04-05T11:02:04.188Z,31.55
2024-04-05T11:04:32.698Z,31.94
2024-04-05T11:07:01.812Z,32.29
2024-04-05T11:09:37.476Z,32.72
2024-04-05T11:12:06.366Z,33.44
2024-04-05T11:14:35.033Z,33.63
2024-04-05T11:17:03.690Z,33.87
2024-04-05T11:19:32.880Z,34.09
2024-04-05T11:22:05.196Z,34.32
2024-04-05T11:24:33.688Z,33.35
2024-04-05T11:27:02.173Z,32.95
2024-04-05T11:29:30.664Z,33.06
2024-04-05T11:32:02.359Z,32.42
2024-04-05T11:34:30.854Z,31.06
2024-04-05T11:36:59.320Z,28.84
2024-04-05T11:39:28.363Z,28.01
2024-04-05T11:41:56.832Z,27.31
2024-04-05T11:44:25.403Z,27.09
2024-04-05T11:46:53.986Z,26.66
2024-04-05T11:49:22.596Z,26.08
2024-04-05T11:51:51.031Z,25.31
2024-04-05T11:54:19.485Z,26.07
2024-04-05T11:56:47.969Z,26.81
2024-04-05T11:59:16.542Z,27.34
2024-04-05T12:01:45.035Z,27.75
2024-04-05T12:04:13.498Z,28.12
2024-04-05T12:06:41.960Z,28.63
2024-04-05T12:09:10.488Z,29.17
2024-04-05T12:11:38.962Z,29.56
2024-04-05T12:14:11.097Z,30.08
2024-04-05T12:16:41.752Z,30.42
2024-04-05T12:19:10.315Z,30.76
2024-04-05T12:21:38.804Z,30.92
2024-04-05T12:24:07.424Z,31.19
2024-04-05T12:26:38.036Z,31.10
2024-04-05T12:29:06.941Z,31.40
2024-04-05T12:31:35.495Z,31.37
2024-04-05T12:34:04.521Z,31.18
2024-04-05T12:36:33.878Z,31.15
2024-04-05T12:39:08.606Z,31.45
2024-04-05T12:41:37.064Z,31.52
2024-04-05T12:44:05.732Z,31.38
2024-04-05T12:46:34.387Z,31.25
2024-04-05T12:49:02.900Z,31.50
2024-04-05T12:51:31.362Z,31.29
2024-04-05T12:53:59.827Z,31.31
2024-04-05T12:56:29.246Z,31.25
2024-04-05T12:58:58.701Z,31.39
2024-04-05T13:01:28.325Z,31.62
2024-04-05T13:03:56.859Z,31.87
2024-04-05T13:06:25.375Z,31.98
2024-04-05T13:08:56.090Z,31.93
2024-04-05T13:11:24.559Z,31.86
2024-04-05T13:13:53.067Z,31.83
2024-04-05T13:16:21.581Z,32.14
2024-04-05T13:18:50.784Z,32.18
2024-04-05T13:21:19.349Z,32.21
2024-04-05T13:23:50.900Z,32.33
2024-04-05T13:26:24.009Z,32.62
2024-04-05T13:28:56.516Z,32.60
2024-04-05T13:31:27.965Z,32.44
2024-04-05T13:33:56.467Z,32.54
2024-04-05T13:36:25.412Z,32.87
2024-04-05T13:38:53.919Z,32.64
2024-04-05T13:41:22.387Z,32.56
2024-04-05T13:43:50.888Z,32.79
2024-04-05T13:46:22.603Z,32.86
2024-04-05T13:48:53.359Z,33.01
2024-04-05T13:51:28.096Z,33.23
2024-04-05T13:53:57.348Z,33.32
2024-04-05T13:56:26.204Z,33.45
2024-04-05T13:58:54.711Z,33.62
2024-04-05T14:01:24.541Z,33.75
2024-04-05T14:03:53.585Z,34.21
2024-04-05T14:06:22.043Z,34.16
2024-04-05T14:08:52.322Z,34.20
2024-04-05T14:11:20.838Z,34.41
2024-04-05T14:13:49.340Z,34.41
2024-04-05T14:16:18.737Z,34.39
2024-04-05T14:18:53.413Z,34.74
2024-04-05T14:21:21.902Z,34.70
2024-04-05T14:23:50.810Z,34.62
2024-04-05T14:26:21.854Z,34.49
2024-04-05T14:28:50.539Z,34.94
2024-04-05T14:31:19.001Z,35.02
2024-04-05T14:33:58.294Z,35.30
2024-04-05T14:36:28.669Z,35.67
2024-04-05T14:38:57.236Z,35.70
2024-04-05T14:41:26.211Z,36.19
2024-04-05T14:43:56.146Z,35.94
2024-04-05T14:46:24.635Z,36.00
2024-04-05T14:48:53.109Z,36.04
2024-04-05T14:51:21.573Z,36.21
2024-04-05T14:53:52.359Z,36.16
2024-04-05T14:56:20.853Z,36.48
2024-04-05T14:58:49.542Z,36.56
2024-04-05T15:01:18.026Z,36.67
2024-04-05T15:03:46.497Z,37.04
2024-04-05T15:06:16.998Z,37.07
2024-04-05T15:08:47.593Z,37.30
2024-04-05T15:11:17.533Z,37.24
2024-04-05T15:13:46.227Z,37.28
2024-04-05T15:16:15.094Z,37.24
2024-04-05T15:18:43.942Z,37.28
2024-04-05T15:21:12.486Z,37.39
2024-04-05T15:23:41.654Z,37.72
2024-04-05T15:26:10.263Z,37.75
2024-04-05T15:28:39.227Z,37.68
2024-04-05T15:31:07.835Z,37.66
2024-04-05T15:33:38.179Z,37.64
2024-04-05T15:36:09.593Z,37.66
2024-04-05T15:38:38.561Z,37.76
2024-04-05T15:41:09.192Z,37.74
2024-04-05T15:43:39.800Z,37.79
2024-04-05T15:46:10.423Z,37.83
2024-04-05T15:48:40.805Z,37.97
2024-04-05T15:51:09.898Z,38.28
2024-04-05T15:53:38.349Z,38.48
2024-04-05T15:56:07.066Z,38.44
2024-04-05T15:58:36.584Z,38.54
2024-04-05T16:01:10.876Z,38.47
2024-04-05T16:03:39.921Z,38.75
2024-04-05T16:06:09.323Z,38.97
2024-04-05T16:08:38.178Z,39.05
2024-04-05T16:11:07.458Z,39.04
2024-04-05T16:13:35.998Z,39.02
2024-04-05T16:16:09.366Z,39.17
2024-04-05T16:18:40.158Z,39.19
2024-04-05T16:21:14.025Z,39.29
2024-04-05T16:23:44.975Z,39.48
2024-04-05T16:26:15.485Z,39.65
2024-04-05T16:28:47.054Z,40.03
2024-04-05T16:31:16.818Z,40.08
2024-04-05T16:33:46.613Z,40.32
2024-04-05T16:36:15.203Z,40.48
2024-04-05T16:38:43.811Z,40.48
2024-04-05T16:41:16.160Z,40.53
2024-04-05T16:43:45.140Z,40.80
2024-04-05T16:46:15.966Z,40.96
2024-04-05T16:48:46.384Z,40.98
2024-04-05T16:51:22.672Z,41.11
2024-04-05T16:53:52.344Z,41.52
2024-04-05T16:56:20.885Z,41.68
2024-04-05T16:58:50.013Z,41.84
2024-04-05T17:01:22.242Z,42.14
2024-04-05T17:03:51.482Z,42.64
2024-04-05T17:06:22.683Z,42.73
2024-04-05T17:08:51.991Z,42.88
2024-04-05T17:11:22.617Z,43.18
2024-04-05T17:13:52.371Z,43.37
2024-04-05T17:16:21.024Z,43.61
2024-04-05T17:18:49.541Z,43.65
2024-04-05T17:21:18.840Z,43.87
2024-04-05T17:23:50.133Z,44.08
2024-04-05T17:26:18.664Z,44.38
2024-04-05T17:28:47.162Z,44.52
2024-04-05T17:31:15.689Z,44.70
2024-04-05T17:33:44.270Z,44.98
2024-04-05T17:36:12.963Z,45.22
2024-04-05T17:38:41.832Z,45.21
2024-04-05T17:41:10.457Z,45.46
2024-04-05T17:43:38.956Z,45.89
2024-04-05T17:46:07.421Z,46.08
2024-04-05T17:48:35.876Z,46.06
2024-04-05T17:51:05.714Z,46.15
2024-04-05T17:53:34.264Z,46.40
2024-04-05T17:56:03.263Z,46.77
2024-04-05T17:58:31.742Z,47.10
2024-04-05T18:01:00.232Z,47.18
2024-04-05T18:03:28.845Z,47.51
2024-04-05T18:05:57.375Z,47.86
2024-04-05T18:08:26.053Z,47.96
2024-04-05T18:10:55.402Z,48.22
2024-04-05T18:13:23.891Z,48.10
2024-04-05T18:15:52.413Z,48.20
2024-04-05T18:18:22.391Z,48.33
2024-04-05T18:20:50.905Z,48.17
2024-04-05T18:23:20.559Z,48.40
2024-04-05T18:25:49.477Z,48.72
2024-04-05T18:28:19.507Z,49.10
2024-04-05T18:30:48.036Z,49.36
2024-04-05T18:33:16.855Z,49.53
2024-04-05T18:35:46.195Z,49.30
2024-04-05T18:38:15.446Z,49.40
2024-04-05T18:40:44.053Z,49.36
2024-04-05T18:43:21.253Z,49.30
2024-04-05T18:45:50.398Z,49.44
2024-04-05T18:48:19.359Z,49.53
2024-04-05T18:50:50.525Z,49.85
2024-04-05T18:53:19.744Z,49.59
2024-04-05T18:55:50.140Z,49.67
2024-04-05T18:58:25.191Z,49.93
2024-04-05T19:00:53.710Z,49.80
2024-04-05T19:03:31.307Z,49.75
2024-04-05T19:06:00.201Z,49.90
2024-04-05T19:08:30.747Z,49.96
2024-04-05T19:11:03.135Z,50.04
2024-04-05T19:13:35.376Z,50.18
2024-04-05T19:16:08.196Z,50.17
2024-04-05T19:18:38.442Z,50.11
2024-04-05T19:21:08.223Z,50.01
2024-04-05T19:23:36.759Z,50.06
2024-04-05T19:26:05.610Z,50.10
2024-04-05T19:28:34.296Z,50.06
2024-04-05T19:31:02.960Z,50.11
2024-04-05T19:33:31.836Z,50.22
2024-04-05T19:36:00.354Z,50.52
2024-04-05T19:38:30.067Z,50.62
2024-04-05T19:41:01.206Z,50.65
2024-04-05T19:43:29.702Z,50.61
2024-04-05T19:45:58.417Z,50.75
2024-04-05T19:48:26.914Z,50.84
2024-04-05T19:50:55.530Z,50.98
2024-04-05T19:53:24.018Z,50.91
2024-04-05T19:55:52.470Z,51.12
2024-04-05T19:58:29.260Z,51.17
2024-04-05T20:00:59.999Z,51.30
2024-04-05T20:03:29.445Z,51.35
2024-04-05T20:06:00.673Z,51.41
2024-04-05T20:08:29.323Z,51.60
2024-04-05T20:10:57.840Z,51.72
2024-04-05T20:13:26.378Z,51.58
2024-04-05T20:15:54.889Z,51.62
2024-04-05T20:18:23.441Z,51.64
2024-04-05T20:20:52.244Z,51.79
2024-04-05T20:23:20.821Z,51.74
2024-04-05T20:25:49.357Z,51.71
2024-04-05T20:28:38.848Z,51.68
2024-04-05T20:31:24.720Z,51.77
2024-04-05T20:33:53.979Z,51.66
2024-04-05T20:36:22.488Z,51.56
2024-04-05T20:38:51.089Z,51.60
2024-04-05T20:41:19.978Z,51.63
2024-04-05T20:43:48.685Z,51.58
2024-04-05T20:46:17.459Z,51.74
2024-04-05T20:48:45.904Z,51.70
2024-04-05T20:51:15.826Z,51.80
2024-04-05T20:53:44.992Z,51.81
2024-04-05T20:56:13.567Z,51.82
2024-04-05T20:58:42.050Z,51.98
2024-04-05T21:01:11.084Z,52.24
2024-04-05T21:03:39.666Z,52.18
2024-04-05T21:06:08.187Z,52.08
2024-04-05T21:08:36.640Z,52.09
2024-04-05T21:11:05.315Z,52.12
2024-04-05T21:13:33.919Z,52.23
2024-04-05T21:16:02.405Z,52.33
2024-04-05T21:18:30.907Z,52.43
2024-04-05T21:20:59.542Z,52.44
2024-04-05T21:23:28.022Z,52.58
2024-04-05T21:25:57.351Z,52.61
2024-04-05T21:28:25.826Z,52.62
2024-04-05T21:30:54.955Z,52.62
2024-04-05T21:33:23.474Z,52.70
2024-04-05T21:35:54.224Z,52.85
2024-04-05T21:38:22.761Z,52.83
2024-04-05T21:40:51.300Z,53.00
2024-04-05T21:43:19.782Z,52.97
2024-04-05T21:45:48.366Z,53.09
2024-04-05T21:48:16.907Z,53.22
2024-04-05T21:53:17.042Z,53.21
2024-04-05T21:55:45.535Z,53.42
2024-04-05T21:58:14.330Z,53.62
2024-04-05T22:00:42.913Z,53.89
2024-04-05T22:03:11.849Z,53.97
2024-04-05T22:05:40.397Z,54.11
2024-04-05T22:08:09.342Z,53.89
2024-04-05T22:10:37.817Z,54.05
2024-04-05T22:13:06.314Z,54.15
2024-04-05T22:15:34.785Z,54.16
2024-04-05T22:18:03.386Z,54.38
2024-04-05T22:20:31.863Z,54.58
2024-04-05T22:23:00.350Z,54.35
2024-04-05T22:25:28.905Z,54.24
2024-04-05T22:27:57.391Z,54.25
2024-04-05T22:30:27.552Z,54.28
2024-04-05T22:32:56.006Z,54.68
2024-04-05T22:35:24.684Z,54.83
2024-04-05T22:37:53.220Z,55.07
2024-04-05T22:40:21.729Z,55.06
2024-04-05T22:42:50.178Z,54.97
2024-04-05T22:45:18.741Z,55.07
2024-04-05T22:47:47.638Z,55.14
2024-04-05T22:50:16.265Z,55.44
2024-04-05T22:52:45.397Z,55.48
2024-04-05T22:55:15.573Z,55.56
2024-04-05T22:57:44.212Z,55.64
2024-04-05T23:00:13.859Z,55.67
2024-04-05T23:02:42.761Z,55.66
2024-04-05T23:05:11.278Z,55.79
2024-04-05T23:07:39.838Z,55.94
2024-04-05T23:10:08.456Z,56.03
2024-04-05T23:12:37.133Z,56.08
2024-04-05T23:15:05.781Z,56.16
2024-04-05T23:17:34.257Z,56.22
2024-04-05T23:20:02.980Z,56.43
2024-04-05T23:22:33.905Z,56.68
2024-04-05T23:25:02.760Z,56.49
2024-04-05T23:27:31.222Z,56.48
2024-04-05T23:29:59.695Z,56.56
2024-04-05T23:32:28.276Z,56.62
2024-04-05T23:34:56.810Z,56.69
2024-04-05T23:37:25.290Z,56.70
2024-04-05T23:39:53.748Z,56.94
2024-04-05T23:42:22.198Z,57.11
2024-04-05T23:44:50.663Z,57.30
2024-04-05T23:47:19.158Z,57.48
2024-04-05T23:49:47.617Z,57.60
2024-04-05T23:52:16.081Z,57.54
2024-04-05T23:54:44.575Z,57.56
2024-04-05T23:57:13.298Z,57.80
2024-04-05T23:59:41.872Z,57.98
